Time;durP1;ratioP1;P1;durP2;ratioP2;P2;SDS_P1;SDS_P2;PMS_P1;PMS_P2;Temp;Humidity;BMP_temperature;BMP_pressure;BME280_temperature;BME280_humidity;BME280_pressure;Samples;Min_cycle;Max_cycle;Signal;HPM_P1;HPM_P2
2023/08/21 00:02:02;;;;;;;9.53;6.53;;;18.30;99.90;;;;;;5077304;28;20464;-55
2023/08/21 00:04:29;;;;;;;7.77;6.10;;;18.20;99.90;;;;;;5078024;28;20548;-56
2023/08/21 00:06:57;;;;;;;7.10;6.37;;;18.20;99.90;;;;;;5078315;28;20457;-56
2023/08/21 00:09:24;;;;;;;6.60;5.87;;;18.10;99.90;;;;;;5076976;28;20461;-55
2023/08/21 00:11:51;;;;;;;11.67;6.23;;;18.10;99.90;;;;;;5077402;28;20551;-55
2023/08/21 00:14:20;;;;;;;6.77;6.00;;;18.00;99.90;;;;;;5077235;28;20524;-56
2023/08/21 00:16:47;;;;;;;10.60;6.10;;;17.90;99.90;;;;;;5077676;28;20565;-51
2023/08/21 00:19:14;;;;;;;7.80;6.43;;;17.80;99.90;;;;;;5077118;28;20895;-55
2023/08/21 00:21:42;;;;;;;13.60;6.00;;;17.80;99.90;;;;;;5077317;28;20903;-55
2023/08/21 00:24:09;;;;;;;8.20;6.30;;;17.80;99.90;;;;;;5077362;28;20506;-55
2023/08/21 00:26:36;;;;;;;8.40;6.17;;;17.70;1.00;;;;;;5077202;28;20498;-56
2023/08/21 00:29:03;;;;;;;7.67;6.10;;;17.60;1.00;;;;;;5078012;28;20465;-57
2023/08/21 00:31:32;;;;;;;7.53;6.83;;;17.60;1.00;;;;;;5076749;28;20902;-55
2023/08/21 00:33:59;;;;;;;7.80;5.90;;;17.60;1.00;;;;;;5077415;28;20584;-56
2023/08/21 00:36:26;;;;;;;6.47;5.63;;;17.60;1.00;;;;;;5077053;28;20463;-54
2023/08/21 00:38:53;;;;;;;7.47;5.90;;;17.70;1.00;;;;;;5077422;28;20465;-56
2023/08/21 00:41:20;;;;;;;8.03;6.43;;;17.70;1.00;;;;;;5076675;28;20462;-56
2023/08/21 00:43:48;;;;;;;6.77;5.70;;;17.70;1.00;;;;;;5077440;28;20483;-54
2023/08/21 00:46:18;;;;;;;6.90;5.40;;;17.60;1.00;;;;;;5077862;28;20755;-53
2023/08/21 00:48:47;;;;;;;10.40;6.73;;;17.70;1.00;;;;;;5078254;28;20465;-55
2023/08/21 00:51:17;;;;;;;9.60;5.50;;;17.70;1.00;;;;;;5076969;28;20894;-55
2023/08/21 00:53:45;;;;;;;10.00;7.00;;;17.70;1.00;;;;;;5076554;28;20488;-56
2023/08/21 00:56:12;;;;;;;8.23;5.70;;;17.70;1.00;;;;;;5076146;28;20466;-56
2023/08/21 00:58:40;;;;;;;10.00;6.50;;;17.60;1.00;;;;;;5076667;28;20835;-56
2023/08/21 01:01:07;;;;;;;8.13;6.30;;;17.60;1.00;;;;;;5076391;28;20781;-55
2023/08/21 01:03:34;;;;;;;6.47;5.77;;;17.60;1.00;;;;;;5077136;28;20540;-55
2023/08/21 01:06:03;;;;;;;8.20;5.93;;;17.60;1.00;;;;;;5077300;28;20768;-53
2023/08/21 01:08:36;;;;;;;7.20;6.20;;;17.50;1.00;;;;;;5076119;28;20457;-55
2023/08/21 01:11:09;;;;;;;6.97;6.27;;;17.50;1.00;;;;;;5076728;28;20462;-55
2023/08/21 01:13:48;;;;;;;7.80;5.93;;;17.50;1.00;;;;;;5076430;28;20836;-55
2023/08/21 01:16:17;;;;;;;9.67;6.23;;;17.50;1.00;;;;;;5077021;28;20459;-56
2023/08/21 01:18:46;;;;;;;9.80;7.27;;;17.40;1.00;;;;;;5077144;28;20796;-51
2023/08/21 01:21:14;;;;;;;12.00;6.40;;;17.40;1.00;;;;;;5076917;28;20495;-54
2023/08/21 01:23:43;;;;;;;6.20;5.23;;;17.40;1.00;;;;;;5076123;28;20844;-56
2023/08/21 01:26:10;;;;;;;11.27;6.40;;;17.40;1.00;;;;;;5076758;28;20846;-54
2023/08/21 01:28:38;;;;;;;6.80;5.87;;;17.30;1.00;;;;;;5077069;28;20563;-52
2023/08/21 01:31:10;;;;;;;7.33;5.27;;;17.30;1.00;;;;;;5076603;28;20460;-56
2023/08/21 01:33:43;;;;;;;11.10;6.17;;;17.30;1.00;;;;;;5075910;28;20956;-54
2023/08/21 01:36:11;;;;;;;7.07;6.10;;;17.30;1.00;;;;;;5076579;28;20465;-56
2023/08/21 01:38:38;;;;;;;7.00;6.20;;;17.20;1.00;;;;;;5076986;28;20745;-56
2023/08/21 01:41:07;;;;;;;12.53;6.93;;;17.20;8.20;;;;;;5076461;28;20457;-52
2023/08/21 01:43:34;;;;;;;11.53;6.40;;;17.20;1.00;;;;;;5076784;28;20953;-53
2023/08/21 01:46:02;;;;;;;9.10;7.07;;;17.20;1.00;;;;;;5076234;28;20460;-52
2023/08/21 01:48:29;;;;;;;8.67;7.30;;;17.20;1.00;;;;;;5077160;28;20431;-51
2023/08/21 01:50:57;;;;;;;9.43;7.20;;;17.20;1.00;;;;;;5076373;28;20462;-56
2023/08/21 01:53:24;;;;;;;8.70;6.77;;;17.20;1.00;;;;;;5076822;28;20497;-55
2023/08/21 01:55:51;;;;;;;9.63;6.13;;;17.20;1.00;;;;;;5076186;28;20472;-55
2023/08/21 01:58:19;;;;;;;10.53;6.20;;;17.20;1.00;;;;;;5075945;28;20461;-53
2023/08/21 02:00:47;;;;;;;12.53;7.77;;;17.20;1.00;;;;;;5076643;28;20467;-54
2023/08/21 02:03:15;;;;;;;9.07;7.00;;;17.30;1.00;;;;;;5076459;28;20462;-55
2023/08/21 02:05:42;;;;;;;7.60;6.77;;;17.30;1.00;;;;;;5076706;28;20879;-54
2023/08/21 02:08:13;;;;;;;7.90;5.90;;;17.20;1.00;;;;;;5076132;28;20886;-56
2023/08/21 02:10:48;;;;;;;7.63;6.17;;;17.20;1.00;;;;;;5076781;28;20462;-54
2023/08/21 02:13:15;;;;;;;8.07;6.10;;;17.20;1.00;;;;;;5075784;28;20467;-56
2023/08/21 02:15:44;;;;;;;7.33;6.20;;;17.20;1.00;;;;;;5076310;28;20495;-55
2023/08/21 02:18:11;;;;;;;7.90;6.30;;;17.10;1.00;;;;;;5076042;28;20905;-55
2023/08/21 02:20:38;;;;;;;7.60;6.60;;;17.10;1.00;;;;;;5076852;28;20463;-56
2023/08/21 02:23:05;;;;;;;12.00;6.70;;;17.10;1.00;;;;;;5079424;28;20463;-56
2023/08/21 02:25:33;;;;;;;8.97;6.83;;;17.10;1.00;;;;;;5080471;28;20459;-56
2023/08/21 02:28:01;;;;;;;8.30;6.90;;;17.10;1.00;;;;;;5080286;28;20737;-57
2023/08/21 02:30:29;;;;;;;7.60;6.50;;;17.10;1.00;;;;;;5080072;28;20877;-56
2023/08/21 02:32:57;;;;;;;7.57;6.20;;;17.00;1.00;;;;;;5078738;28;20457;-54
2023/08/21 02:35:25;;;;;;;9.70;7.50;;;16.90;1.00;;;;;;5079271;28;20921;-56
2023/08/21 02:37:52;;;;;;;8.07;6.63;;;16.80;1.00;;;;;;5079973;28;20897;-57
2023/08/21 02:40:19;;;;;;;7.20;6.20;;;16.90;93.80;;;;;;5079052;28;20464;-54
2023/08/21 02:42:46;;;;;;;7.23;6.23;;;16.90;99.90;;;;;;5079549;28;20913;-57
2023/08/21 02:45:13;;;;;;;8.10;6.60;;;16.90;99.90;;;;;;5078278;28;20461;-54
2023/08/21 02:47:41;;;;;;;8.10;6.50;;;16.90;98.10;;;;;;5079476;28;20548;-54
2023/08/21 02:50:11;;;;;;;7.90;6.23;;;16.90;94.00;;;;;;5079057;28;20465;-56
2023/08/21 02:52:39;;;;;;;9.37;7.03;;;16.80;94.80;;;;;;5079660;28;20461;-56
2023/08/21 02:55:07;;;;;;;11.90;7.03;;;16.80;95.80;;;;;;5078356;28;20489;-56
2023/08/21 02:57:34;;;;;;;9.17;6.70;;;16.80;97.40;;;;;;5078471;28;20499;-55
2023/08/21 03:00:02;;;;;;;7.87;6.20;;;16.80;39.50;;;;;;5078859;28;20461;-55
2023/08/21 03:02:29;;;;;;;8.30;5.70;;;16.80;53.50;;;;;;5078738;28;20492;-57
2023/08/21 03:04:56;;;;;;;7.37;5.97;;;16.80;77.00;;;;;;5076827;28;20544;-55
2023/08/21 03:07:25;;;;;;;7.27;6.10;;;16.70;99.90;;;;;;5077454;28;20468;-57
2023/08/21 03:09:52;;;;;;;9.93;5.83;;;16.70;93.50;;;;;;5077609;28;20465;-54
2023/08/21 03:12:19;;;;;;;8.17;6.07;;;16.60;99.90;;;;;;5077899;28;20457;-57
2023/08/21 03:14:47;;;;;;;7.80;6.30;;;16.60;99.90;;;;;;5077624;28;20489;-57
2023/08/21 03:17:14;;;;;;;7.83;6.20;;;16.60;99.90;;;;;;5077353;28;20838;-55
2023/08/21 03:19:41;;;;;;;8.10;7.10;;;16.60;99.90;;;;;;5078787;28;20941;-51
2023/08/21 03:22:09;;;;;;;6.90;6.20;;;16.50;99.90;;;;;;5079070;28;20463;-56
2023/08/21 03:24:37;;;;;;;10.57;6.90;;;16.50;99.90;;;;;;5078209;28;20457;-56
2023/08/21 03:27:05;;;;;;;7.13;6.50;;;16.60;99.90;;;;;;5078206;28;20467;-57
2023/08/21 03:29:32;;;;;;;8.57;6.27;;;16.60;99.90;;;;;;5078890;28;20924;-54
2023/08/21 03:31:59;;;;;;;10.23;6.90;;;16.60;61.70;;;;;;5078651;28;20462;-56
2023/08/21 03:34:26;;;;;;;7.10;5.60;;;16.60;99.90;;;;;;5078044;28;20583;-57
2023/08/21 03:36:53;;;;;;;7.80;6.43;;;16.60;99.90;;;;;;5077731;28;20461;-56
2023/08/21 03:39:21;;;;;;;11.33;6.60;;;16.60;1.00;;;;;;5078098;28;20461;-56
2023/08/21 03:41:49;;;;;;;8.20;6.73;;;16.50;1.00;;;;;;5078560;28;20457;-55
2023/08/21 03:44:16;;;;;;;6.47;5.83;;;16.50;66.30;;;;;;5078944;28;20449;-56
2023/08/21 03:46:43;;;;;;;9.90;6.70;;;16.50;99.90;;;;;;5078660;28;20552;-54
2023/08/21 03:49:10;;;;;;;8.90;6.63;;;16.50;99.90;;;;;;5078301;28;20877;-58
2023/08/21 03:51:38;;;;;;;15.10;7.27;;;16.50;84.60;;;;;;5077586;28;20471;-56
2023/08/21 03:54:05;;;;;;;7.43;6.50;;;16.40;99.90;;;;;;5078352;28;20765;-56
2023/08/21 03:56:33;;;;;;;9.50;6.13;;;16.30;99.90;;;;;;5078438;28;20911;-54
2023/08/21 03:59:01;;;;;;;14.47;6.50;;;16.30;99.90;;;;;;5078148;28;20457;-57
2023/08/21 04:01:28;;;;;;;11.60;6.13;;;16.30;99.90;;;;;;5078610;28;20540;-56
2023/08/21 04:03:55;;;;;;;7.47;6.53;;;16.30;99.90;;;;;;5077157;28;20471;-56
2023/08/21 04:06:23;;;;;;;10.63;6.30;;;16.40;99.90;;;;;;5078013;28;20468;-55
2023/08/21 04:08:50;;;;;;;7.83;6.40;;;16.40;99.90;;;;;;5077931;28;20454;-57
2023/08/21 04:11:17;;;;;;;8.43;5.67;;;16.40;99.90;;;;;;5077851;28;20492;-56
2023/08/21 04:13:45;;;;;;;8.50;6.70;;;16.40;99.90;;;;;;5077854;28;20465;-56
2023/08/21 04:16:14;;;;;;;10.03;6.23;;;16.40;99.90;;;;;;5077750;28;20521;-57
2023/08/21 04:18:42;;;;;;;7.30;5.77;;;16.40;99.90;;;;;;5076512;28;20925;-56
2023/08/21 04:21:09;;;;;;;10.90;6.83;;;16.40;99.90;;;;;;5077264;28;20471;-55
2023/08/21 04:23:36;;;;;;;8.30;7.20;;;16.40;89.30;;;;;;5077366;28;20503;-57
2023/08/21 04:26:04;;;;;;;8.17;6.53;;;16.40;99.90;;;;;;5077888;28;20453;-56
2023/08/21 04:28:32;;;;;;;8.70;7.03;;;16.40;99.90;;;;;;5077876;28;20497;-54
2023/08/21 04:30:59;;;;;;;9.20;6.90;;;16.40;99.90;;;;;;5076965;28;20912;-55
2023/08/21 04:33:29;;;;;;;9.67;7.63;;;16.40;99.90;;;;;;5077165;28;20481;-55
2023/08/21 04:35:56;;;;;;;8.10;7.30;;;16.40;99.90;;;;;;5076770;28;20489;-57
2023/08/21 04:38:23;;;;;;;7.17;6.47;;;16.40;99.90;;;;;;5077563;28;20493;-56
2023/08/21 04:40:50;;;;;;;8.57;7.60;;;16.50;99.90;;;;;;5077662;28;20461;-55
2023/08/21 04:43:17;;;;;;;12.17;7.10;;;16.60;99.90;;;;;;5076651;28;20457;-56
2023/08/21 04:45:49;;;;;;;10.43;8.13;;;16.60;99.90;;;;;;5076536;28;20859;-57
2023/08/21 04:48:16;;;;;;;8.93;7.00;;;16.60;99.90;;;;;;5076615;28;20785;-56
2023/08/21 04:50:46;;;;;;;7.93;7.13;;;16.70;99.90;;;;;;5076993;28;20436;-57
2023/08/21 04:53:13;;;;;;;7.50;6.50;;;16.70;99.90;;;;;;5077178;28;20503;-57
2023/08/21 04:55:41;;;;;;;7.70;6.50;;;16.70;99.90;;;;;;5076154;28;20529;-57
2023/08/21 04:58:09;;;;;;;8.87;7.30;;;16.70;99.90;;;;;;5076779;28;20466;-57
2023/08/21 05:00:36;;;;;;;8.50;7.17;;;16.70;99.90;;;;;;5075753;28;20484;-57
2023/08/21 05:03:04;;;;;;;11.07;8.63;;;16.80;99.90;;;;;;5076789;28;20552;-56
2023/08/21 05:05:32;;;;;;;9.70;7.57;;;16.80;99.90;;;;;;5077025;28;20548;-57
2023/08/21 05:08:01;;;;;;;11.73;8.53;;;16.80;99.90;;;;;;5076487;28;20472;-57
2023/08/21 05:10:28;;;;;;;10.50;7.90;;;16.90;99.90;;;;;;5076530;28;20546;-57
2023/08/21 05:12:57;;;;;;;11.50;9.00;;;16.90;99.90;;;;;;5077189;28;20870;-56
2023/08/21 05:15:24;;;;;;;11.10;9.00;;;17.00;99.90;;;;;;5076573;28;20524;-57
2023/08/21 05:17:52;;;;;;;8.97;7.43;;;17.10;99.90;;;;;;5075607;28;20468;-58
2023/08/21 05:20:19;;;;;;;15.57;8.17;;;17.20;99.90;;;;;;5074941;28;20479;-57
2023/08/21 05:22:46;;;;;;;9.50;8.40;;;17.30;99.90;;;;;;5075311;28;20458;-58
2023/08/21 05:25:15;;;;;;;9.30;7.93;;;17.40;99.90;;;;;;5075368;28;20449;-55
2023/08/21 05:27:42;;;;;;;10.20;8.43;;;17.50;99.90;;;;;;5075348;28;20461;-56
2023/08/21 05:30:12;;;;;;;13.40;8.33;;;17.50;99.90;;;;;;5075771;28;20807;-56
2023/08/21 05:32:39;;;;;;;13.57;7.40;;;17.60;99.90;;;;;;5077036;28;20472;-56
2023/08/21 05:35:08;;;;;;;10.00;8.30;;;17.70;99.90;;;;;;5072296;28;20500;-54
2023/08/21 05:37:36;;;;;;;11.83;8.20;;;17.80;99.90;;;;;;5076098;28;20481;-55
2023/08/21 05:40:03;;;;;;;9.73;8.03;;;17.90;99.90;;;;;;5074534;28;20467;-57
2023/08/21 05:42:32;;;;;;;10.80;8.47;;;18.00;99.90;;;;;;5074218;28;20458;-57
2023/08/21 05:44:59;;;;;;;9.57;7.63;;;18.20;99.90;;;;;;5072864;28;20461;-57
2023/08/21 05:47:26;;;;;;;11.40;7.57;;;18.20;60.20;;;;;;5073813;28;20467;-57
2023/08/21 05:49:54;;;;;;;11.70;8.23;;;18.30;1.00;;;;;;5075026;28;20461;-57
2023/08/21 05:52:23;;;;;;;17.93;8.60;;;18.40;1.00;;;;;;5075106;28;20466;-57
2023/08/21 05:54:50;;;;;;;10.07;8.67;;;18.50;1.00;;;;;;5076012;28;21162;-57
2023/08/21 05:57:18;;;;;;;18.00;9.40;;;18.50;99.90;;;;;;5080189;28;20906;-56
2023/08/21 05:59:48;;;;;;;21.87;9.93;;;18.40;3.20;;;;;;5080030;28;20467;-57
2023/08/21 06:02:15;;;;;;;19.87;9.10;;;18.30;99.90;;;;;;5078904;28;20457;-57
2023/08/21 06:04:43;;;;;;;16.47;9.00;;;18.40;1.00;;;;;;5078997;28;20481;-56
2023/08/21 06:07:11;;;;;;;16.33;10.60;;;18.50;99.90;;;;;;5077960;28;20461;-57
2023/08/21 06:09:38;;;;;;;19.43;9.90;;;18.70;99.90;;;;;;5078702;28;20457;-57
2023/08/21 06:12:06;;;;;;;12.50;8.67;;;18.90;99.90;;;;;;5078916;28;20782;-56
2023/08/21 06:14:33;;;;;;;13.83;8.63;;;19.10;99.90;;;;;;5078932;28;20468;-57
2023/08/21 06:17:05;;;;;;;12.03;8.73;;;19.20;91.80;;;;;;5079353;28;20461;-58
2023/08/21 06:19:32;;;;;;;15.40;8.33;;;19.20;1.00;;;;;;5079654;28;20464;-57
2023/08/21 06:21:59;;;;;;;9.10;7.70;;;19.30;99.90;;;;;;5080107;28;20457;-56
2023/08/21 06:24:27;;;;;;;9.57;8.57;;;19.30;41.00;;;;;;5080536;28;20850;-57
2023/08/21 06:26:54;;;;;;;12.00;8.00;;;19.40;1.00;;;;;;5080176;28;20913;-56
2023/08/21 06:29:21;;;;;;;11.27;8.10;;;19.40;1.00;;;;;;5079754;28;20461;-58
2023/08/21 06:31:49;;;;;;;12.03;8.03;;;19.50;1.00;;;;;;5079075;28;20463;-57
2023/08/21 06:34:17;;;;;;;10.63;8.60;;;19.60;1.00;;;;;;5079601;28;20520;-56
2023/08/21 06:36:44;;;;;;;12.53;8.23;;;19.60;18.30;;;;;;5079907;28;20587;-57
2023/08/21 06:39:11;;;;;;;13.00;6.87;;;19.60;28.40;;;;;;5079544;28;20461;-56
2023/08/21 06:41:39;;;;;;;14.37;8.10;;;19.60;1.00;;;;;;5079544;28;20468;-56
2023/08/21 06:44:06;;;;;;;13.00;7.80;;;19.70;1.00;;;;;;5078186;28;20544;-58
2023/08/21 06:46:34;;;;;;;12.00;7.80;;;19.80;99.90;;;;;;5058889;28;20463;-56
2023/08/21 06:49:01;;;;;;;10.73;6.90;;;20.00;1.00;;;;;;5058644;28;20520;-57
2023/08/21 06:51:29;;;;;;;9.30;7.80;;;20.30;99.90;;;;;;5059416;28;20466;-57
2023/08/21 06:53:57;;;;;;;9.67;8.40;;;20.50;99.90;;;;;;5059465;28;20557;-56
2023/08/21 06:56:24;;;;;;;13.07;8.40;;;20.70;1.00;;;;;;5072998;28;20794;-56
2023/08/21 06:58:52;;;;;;;10.90;8.67;;;21.00;99.90;;;;;;5077222;28;20469;-55
2023/08/21 07:01:19;;;;;;;13.73;7.43;;;21.20;1.00;;;;;;5078590;28;20461;-59
2023/08/21 07:03:46;;;;;;;13.73;7.10;;;21.40;99.90;;;;;;5076486;28;20500;-59
2023/08/21 07:06:13;;;;;;;9.63;6.90;;;21.60;99.90;;;;;;5076691;28;20886;-59
2023/08/21 07:08:42;;;;;;;11.77;6.80;;;21.90;1.00;;;;;;5076261;28;20881;-59
2023/08/21 07:11:10;;;;;;;11.47;6.43;;;22.20;1.00;;;;;;5076473;28;20461;-60
2023/08/21 07:13:37;;;;;;;9.93;7.13;;;22.40;99.90;;;;;;5077200;28;20489;-58
2023/08/21 07:16:06;;;;;;;8.50;5.97;;;22.70;99.90;;;;;;5078163;28;20780;-58
2023/08/21 07:18:35;;;;;;;8.70;6.47;;;22.80;99.90;;;;;;5070338;28;20473;-59
2023/08/21 07:21:04;;;;;;;9.50;6.60;;;23.10;1.00;;;;;;5077127;28;20506;-60
2023/08/21 07:23:31;;;;;;;8.23;6.53;;;23.40;1.00;;;;;;5076162;28;20465;-57
2023/08/21 07:26:00;;;;;;;6.40;5.80;;;23.70;1.00;;;;;;5077356;28;20510;-58
2023/08/21 07:28:28;;;;;;;10.57;6.07;;;24.10;1.00;;;;;;5076519;28;20766;-59
2023/08/21 07:30:58;;;;;;;7.90;5.70;;;24.40;99.90;;;;;;5076936;28;20463;-59
2023/08/21 07:33:26;;;;;;;11.37;5.97;;;24.50;1.00;;;;;;5076228;28;20485;-59
2023/08/21 07:36:00;;;;;;;9.33;6.90;;;24.60;99.90;;;;;;5077034;28;20495;-59
2023/08/21 07:38:27;;;;;;;13.97;6.97;;;24.60;99.90;;;;;;5077129;28;20457;-59
2023/08/21 07:41:05;;;;;;;9.83;6.40;;;24.50;99.90;;;;;;5077245;28;20830;-59
2023/08/21 07:43:32;;;;;;;9.80;6.57;;;24.40;99.90;;;;;;5077220;28;20551;-58
2023/08/21 07:46:02;;;;;;;10.87;6.57;;;24.50;99.90;;;;;;5077312;28;20457;-59
2023/08/21 07:48:30;;;;;;;12.03;6.90;;;24.80;99.90;;;;;;5077770;28;20565;-59
2023/08/21 07:50:57;;;;;;;13.47;6.27;;;25.10;99.90;;;;;;5077116;28;20504;-58
2023/08/21 07:53:25;;;;;;;10.30;6.03;;;25.30;99.90;;;;;;5078288;28;20457;-59
2023/08/21 07:55:53;;;;;;;6.93;6.23;;;24.60;1.00;;;;;;5078354;28;20520;-59
2023/08/21 07:58:21;;;;;;;7.60;5.73;;;24.80;99.90;;;;;;5077414;28;20893;-60
2023/08/21 08:00:49;;;;;;;7.80;5.87;;;24.40;99.90;;;;;;5078384;28;20551;-59
2023/08/21 08:03:16;;;;;;;7.90;6.30;;;24.60;99.90;;;;;;5078190;28;20453;-59
2023/08/21 08:05:44;;;;;;;7.27;6.57;;;24.80;1.00;;;;;;5078179;28;20738;-59
2023/08/21 08:08:11;;;;;;;9.00;6.40;;;24.80;99.90;;;;;;5078421;28;20453;-59
2023/08/21 08:10:39;;;;;;;7.47;5.70;;;25.00;99.90;;;;;;5077462;28;20553;-59
2023/08/21 08:13:07;;;;;;;7.53;6.43;;;25.00;1.00;;;;;;5077810;28;20461;-59
2023/08/21 08:15:36;;;;;;;8.80;6.50;;;25.20;99.90;;;;;;5077758;28;20550;-59
2023/08/21 08:18:04;;;;;;;7.10;6.40;;;25.10;99.90;;;;;;5077734;28;20465;-59
2023/08/21 08:20:31;;;;;;;8.03;6.60;;;25.70;1.00;;;;;;5076985;28;20921;-60
2023/08/21 08:22:58;;;;;;;8.53;6.53;;;26.00;99.90;;;;;;5076589;28;20765;-59
2023/08/21 08:25:25;;;;;;;8.90;6.73;;;25.90;95.80;;;;;;5077689;28;20866;-58
2023/08/21 08:27:53;;;;;;;7.60;6.90;;;26.00;1.00;;;;;;5077908;28;20957;-58
2023/08/21 08:30:20;;;;;;;8.20;6.53;;;26.60;1.00;;;;;;5078022;28;20875;-59
2023/08/21 08:32:49;;;;;;;7.50;6.43;;;27.00;1.00;;;;;;5076880;28;20971;-59
2023/08/21 08:35:16;;;;;;;9.30;6.10;;;27.40;1.00;;;;;;5077041;28;21012;-59
2023/08/21 08:37:44;;;;;;;9.73;6.33;;;26.70;99.90;;;;;;5077767;28;20874;-59
2023/08/21 08:40:12;;;;;;;7.90;5.90;;;26.00;99.90;;;;;;5077657;28;20957;-59
2023/08/21 08:42:39;;;;;;;7.33;6.27;;;25.90;99.90;;;;;;5076939;28;20985;-59
2023/08/21 08:45:08;;;;;;;8.33;7.43;;;25.90;99.90;;;;;;5076771;28;20461;-59
2023/08/21 08:47:36;;;;;;;7.27;6.57;;;25.80;99.90;;;;;;5077611;28;20546;-59
2023/08/21 08:50:07;;;;;;;7.77;6.00;;;26.40;99.90;;;;;;5077935;28;20496;-59
2023/08/21 08:52:36;;;;;;;8.30;6.23;;;26.70;99.90;;;;;;5077059;28;20492;-57
2023/08/21 08:55:04;;;;;;;7.37;6.63;;;26.30;99.90;;;;;;5077247;28;20753;-57
2023/08/21 08:57:32;;;;;;;10.37;7.50;;;26.90;99.90;;;;;;5076942;28;20525;-56
2023/08/21 08:59:59;;;;;;;9.03;6.60;;;26.90;99.90;;;;;;5077027;28;21011;-57
2023/08/21 09:02:27;;;;;;;14.30;7.27;;;27.10;99.90;;;;;;5077269;28;20531;-56
2023/08/21 09:04:54;;;;;;;7.63;6.93;;;27.20;99.90;;;;;;5077013;28;20556;-57
2023/08/21 09:07:23;;;;;;;8.30;7.50;;;26.90;99.90;;;;;;5076238;28;20464;-56
2023/08/21 09:09:52;;;;;;;9.03;7.80;;;27.20;99.90;;;;;;5076368;28;20877;-57
2023/08/21 09:12:20;;;;;;;8.53;7.77;;;27.40;99.90;;;;;;5076559;28;20458;-56
2023/08/21 09:14:48;;;;;;;8.43;6.87;;;27.00;96.80;;;;;;5077019;28;20881;-56
2023/08/21 09:17:16;;;;;;;8.33;7.63;;;27.40;99.90;;;;;;5075599;28;20799;-57
2023/08/21 09:19:44;;;;;;;8.33;7.57;;;27.70;99.90;;;;;;5076308;28;20453;-57
2023/08/21 09:22:13;;;;;;;10.93;9.07;;;28.30;99.90;;;;;;5076630;28;20450;-57
2023/08/21 09:24:42;;;;;;;10.37;9.57;;;29.00;99.90;;;;;;5077427;28;20467;-57
2023/08/21 09:27:16;;;;;;;10.57;9.47;;;29.10;99.90;;;;;;5075673;28;20475;-56
2023/08/21 09:29:44;;;;;;;8.90;7.97;;;28.30;1.00;;;;;;5075944;28;20463;-57
2023/08/21 09:32:11;;;;;;;7.53;6.87;;;28.40;31.90;;;;;;5079611;28;20534;-57
2023/08/21 09:34:38;;;;;;;8.00;7.30;;;28.20;1.00;;;;;;5080936;28;20489;-56
2023/08/21 09:37:11;;;;;;;9.30;8.10;;;28.60;38.80;;;;;;5080531;28;21144;-57
2023/08/21 09:39:38;;;;;;;8.60;7.50;;;28.50;1.00;;;;;;5080350;28;20593;-56
2023/08/21 09:42:10;;;;;;;7.70;6.70;;;29.10;81.70;;;;;;5065458;28;21001;-57
2023/08/21 09:44:39;;;;;;;8.63;7.37;;;29.60;11.60;;;;;;5059349;28;20469;-57
2023/08/21 09:47:10;;;;;;;8.77;7.97;;;29.10;1.00;;;;;;5059356;28;20549;-56
2023/08/21 09:49:39;;;;;;;9.67;8.67;;;29.70;1.00;;;;;;5074641;28;21059;-57
2023/08/21 09:52:07;;;;;;;10.63;8.67;;;29.80;1.00;;;;;;5079090;28;20679;-58
2023/08/21 09:54:35;;;;;;;8.83;8.03;;;30.30;1.00;;;;;;5059616;28;20503;-56
2023/08/21 09:57:05;;;;;;;9.23;8.07;;;30.80;1.00;;;;;;5058984;28;20794;-57
2023/08/21 09:59:33;;;;;;;11.00;7.90;;;31.20;1.00;;;;;;5060630;28;20528;-56
2023/08/21 10:02:01;;;;;;;9.00;8.23;;;30.70;1.00;;;;;;5060191;28;20547;-57
2023/08/21 10:04:30;;;;;;;10.03;9.03;;;30.60;99.90;;;;;;5075188;28;20751;-57
2023/08/21 10:06:59;;;;;;;10.37;9.50;;;30.30;99.90;;;;;;5078757;28;20461;-57
2023/08/21 10:09:28;;;;;;;10.33;9.23;;;28.90;99.90;;;;;;5079500;28;20993;-57
2023/08/21 10:11:55;;;;;;;10.30;9.40;;;29.50;1.00;;;;;;5080074;28;20835;-56
2023/08/21 10:14:24;;;;;;;11.03;10.07;;;30.20;1.00;;;;;;5079415;28;20466;-56
2023/08/21 10:16:55;;;;;;;11.00;9.37;;;29.80;1.00;;;;;;5079408;28;20502;-56
2023/08/21 10:19:22;;;;;;;10.53;8.87;;;30.10;99.90;;;;;;5079465;28;20457;-57
2023/08/21 10:21:50;;;;;;;9.87;9.07;;;30.30;1.00;;;;;;5080354;28;20456;-57
2023/08/21 10:24:29;;;;;;;10.03;9.00;;;30.60;99.90;;;;;;5079924;28;20461;-57
2023/08/21 10:27:00;;;;;;;8.67;7.67;;;30.10;99.90;;;;;;5079688;28;20452;-56
2023/08/21 10:29:28;;;;;;;12.77;9.17;;;30.30;99.90;;;;;;5079183;28;20552;-57
2023/08/21 10:32:03;;;;;;;9.43;8.70;;;30.20;99.90;;;;;;5079945;28;20463;-56
2023/08/21 10:34:35;;;;;;;11.70;7.70;;;30.70;1.00;;;;;;5079107;28;20509;-57
2023/08/21 10:37:09;;;;;;;9.23;8.37;;;30.80;99.90;;;;;;5079528;28;21071;-57
2023/08/21 10:39:39;;;;;;;10.47;9.57;;;29.50;99.90;;;;;;5079140;28;20517;-57
2023/08/21 10:42:09;;;;;;;10.00;8.80;;;28.40;99.90;;;;;;5078111;28;20465;-56
2023/08/21 10:44:48;;;;;;;12.07;9.57;;;28.80;1.00;;;;;;5079864;28;20507;-56
2023/08/21 10:47:19;;;;;;;9.00;8.20;;;28.50;99.90;;;;;;5078236;28;20808;-57
2023/08/21 10:49:47;;;;;;;15.00;8.73;;;27.90;1.00;;;;;;5072744;28;20777;-56
2023/08/21 10:52:16;;;;;;;10.07;8.97;;;28.30;1.00;;;;;;5076845;28;20777;-55
2023/08/21 10:54:50;;;;;;;10.00;8.97;;;28.90;1.00;;;;;;5077199;28;20485;-57
2023/08/21 10:57:18;;;;;;;9.30;8.33;;;28.80;1.00;;;;;;5076120;28;20481;-56
2023/08/21 10:59:52;;;;;;;11.73;8.50;;;28.60;1.00;;;;;;5078725;28;20754;-56
2023/08/21 11:02:22;;;;;;;8.00;7.20;;;28.40;1.00;;;;;;5078414;28;20483;-57
2023/08/21 11:04:50;;;;;;;7.87;7.17;;;28.40;1.00;;;;;;5078810;28;20500;-55
2023/08/21 11:07:18;;;;;;;8.33;7.53;;;28.80;1.00;;;;;;5078914;28;20874;-56
2023/08/21 11:09:47;;;;;;;8.37;6.80;;;29.10;1.00;;;;;;5076178;28;20461;-56
2023/08/21 11:12:18;;;;;;;8.37;7.00;;;29.60;1.00;;;;;;5076413;28;20524;-57
2023/08/21 11:14:48;;;;;;;8.13;7.03;;;29.40;99.90;;;;;;5075714;28;20890;-58
2023/08/21 11:17:18;;;;;;;8.37;7.50;;;28.10;99.90;;;;;;5076507;28;20493;-56
2023/08/21 11:19:49;;;;;;;7.70;6.90;;;28.20;1.00;;;;;;5076287;28;20463;-57
2023/08/21 11:22:20;;;;;;;8.87;8.07;;;28.80;1.00;;;;;;5076753;28;20997;-56
2023/08/21 11:24:51;;;;;;;11.57;7.80;;;28.30;1.00;;;;;;5076266;28;20461;-57
2023/08/21 11:27:21;;;;;;;7.87;6.90;;;29.20;1.00;;;;;;5077061;28;20464;-57
2023/08/21 11:29:50;;;;;;;9.87;8.20;;;29.20;99.90;;;;;;5076659;28;20465;-57
2023/08/21 11:32:20;;;;;;;8.57;7.70;;;29.80;99.90;;;;;;5077314;28;20461;-56
2023/08/21 11:34:52;;;;;;;11.23;8.20;;;28.60;99.90;;;;;;5073044;28;20851;-58
2023/08/21 11:37:21;;;;;;;10.00;7.47;;;27.80;99.90;;;;;;5076894;28;20584;-56
2023/08/21 11:39:51;;;;;;;10.30;8.00;;;27.70;1.00;;;;;;5076622;28;20461;-57
2023/08/21 11:42:19;;;;;;;7.90;7.13;;;28.20;1.00;;;;;;5078736;28;20462;-57
2023/08/21 11:44:51;;;;;;;9.50;8.70;;;27.90;1.00;;;;;;5077548;28;20563;-57
2023/08/21 11:47:23;;;;;;;8.13;7.40;;;27.90;1.00;;;;;;5077924;28;20461;-57
2023/08/21 11:49:54;;;;;;;9.67;8.40;;;28.50;1.00;;;;;;5078459;28;20501;-57
2023/08/21 11:52:26;;;;;;;11.80;9.40;;;28.90;99.90;;;;;;5077179;28;20468;-57
2023/08/21 11:54:56;;;;;;;9.60;8.73;;;28.60;99.90;;;;;;5076147;28;20793;-56
2023/08/21 11:57:25;;;;;;;10.40;9.40;;;28.20;99.90;;;;;;5063502;28;20791;-56
2023/08/21 11:59:53;;;;;;;9.37;8.30;;;28.40;99.90;;;;;;5077332;28;20468;-57
2023/08/21 12:02:25;;;;;;;8.80;8.00;;;28.60;99.90;;;;;;5077081;28;20465;-57
2023/08/21 12:05:04;;;;;;;9.40;8.30;;;28.30;99.90;;;;;;5068298;28;20477;-56
2023/08/21 12:07:32;;;;;;;11.70;8.90;;;27.90;99.90;;;;;;5061397;28;20466;-56
2023/08/21 12:10:02;;;;;;;10.03;8.37;;;27.10;99.90;;;;;;5073190;28;20504;-56
2023/08/21 12:12:32;;;;;;;10.00;8.00;;;26.90;1.00;;;;;;5074695;28;20778;-56
2023/08/21 12:15:01;;;;;;;9.77;7.57;;;27.30;1.00;;;;;;5062809;28;20485;-57
2023/08/21 12:17:29;;;;;;;8.63;7.83;;;27.80;1.00;;;;;;5069843;28;20501;-56
2023/08/21 12:19:58;;;;;;;12.70;8.67;;;28.00;1.00;;;;;;5077354;28;20464;-56
2023/08/21 12:22:28;;;;;;;8.13;7.33;;;28.00;99.90;;;;;;5075644;28;20466;-56
2023/08/21 12:24:56;;;;;;;11.63;7.50;;;28.80;1.00;;;;;;5075866;28;20904;-57
2023/08/21 12:27:23;;;;;;;7.47;6.27;;;29.10;99.90;;;;;;5074032;28;20545;-57
2023/08/21 12:29:51;;;;;;;10.20;9.20;;;28.30;99.90;;;;;;5075048;28;20539;-56
2023/08/21 12:32:18;;;;;;;8.63;7.27;;;28.60;99.90;;;;;;5076200;28;20556;-56
2023/08/21 12:34:45;;;;;;;10.20;7.60;;;28.90;99.90;;;;;;5075406;28;20580;-56
2023/08/21 12:37:15;;;;;;;9.40;7.47;;;28.80;99.90;;;;;;5074913;28;20809;-57
2023/08/21 12:39:42;;;;;;;7.77;6.97;;;28.00;99.90;;;;;;5076880;28;20453;-57
2023/08/21 12:42:09;;;;;;;11.70;6.13;;;28.50;99.90;;;;;;5071236;28;20470;-60
2023/08/21 12:44:37;;;;;;;8.70;7.90;;;28.00;99.90;;;;;;5075992;28;21079;-60
2023/08/21 12:47:04;;;;;;;11.60;7.80;;;27.20;99.90;;;;;;5076268;28;20460;-60
2023/08/21 12:49:32;;;;;;;8.60;7.70;;;26.80;99.90;;;;;;5074994;28;20469;-60
2023/08/21 12:51:59;;;;;;;8.20;7.13;;;27.00;99.90;;;;;;5076385;28;20457;-61
2023/08/21 12:54:28;;;;;;;15.60;8.10;;;27.40;99.90;;;;;;5076595;28;20461;-61